Time;durP1;ratioP1;P1;durP2;ratioP2;P2;SDS_P1;SDS_P2;PMS_P1;PMS_P2;Temp;Humidity;BMP_temperature;BMP_pressure;BME280_temperature;BME280_humidity;BME280_pressure;Samples;Min_cycle;Max_cycle;Signal;HPM_P1;HPM_P2
2022/09/19 00:02:23;;;;;;;12.98;1.95;;;;;;;20.38;56.77;96839.63;5168356;27;20018;-69
2022/09/19 00:04:48;;;;;;;3.35;1.23;;;;;;;20.40;56.58;96839.38;5167092;27;20258;-68
2022/09/19 00:07:14;;;;;;;5.72;1.20;;;;;;;20.38;56.79;96847.69;5147583;28;20031;-68
2022/09/19 00:09:39;;;;;;;5.03;1.52;;;;;;;20.39;56.68;96852.00;5147627;27;20054;-68
2022/09/19 00:12:05;;;;;;;16.65;2.28;;;;;;;20.38;56.65;96842.31;5147509;27;20046;-67
2022/09/19 00:14:33;;;;;;;3.05;1.45;;;;;;;20.38;56.58;96839.63;5166636;27;20061;-67
2022/09/19 00:17:03;;;;;;;2.03;1.10;;;;;;;20.37;56.78;96824.56;5166713;27;20050;-67
2022/09/19 00:19:29;;;;;;;2.15;1.48;;;;;;;20.38;56.78;96822.72;5167948;27;20027;-67
2022/09/19 00:21:58;;;;;;;2.08;1.40;;;;;;;20.39;56.80;96819.75;5168176;27;20047;-67
2022/09/19 00:27:09;;;;;;;2.40;1.70;;;;;;;20.39;56.68;96825.13;5167173;27;20067;-67
2022/09/19 00:29:37;;;;;;;1.88;1.55;;;;;;;20.40;56.71;96810.66;5166437;27;20038;-67
2022/09/19 00:32:11;;;;;;;3.53;2.00;;;;;;;20.39;56.70;96810.91;5168205;27;20030;-67
2022/09/19 00:34:37;;;;;;;2.90;1.80;;;;;;;20.38;56.93;96807.41;5168445;27;20022;-67
2022/09/19 00:37:03;;;;;;;2.63;1.88;;;;;;;20.35;56.74;96802.56;5168117;27;20035;-68
2022/09/19 00:39:29;;;;;;;1.98;1.63;;;;;;;20.36;56.86;96801.50;5171298;27;20043;-67
2022/09/19 00:41:55;;;;;;;2.28;1.88;;;;;;;20.37;56.85;96800.41;5171507;27;20099;-67
2022/09/19 00:44:23;;;;;;;3.03;1.98;;;;;;;20.39;56.98;96795.59;5171154;27;20038;-67
2022/09/19 00:47:02;;;;;;;2.67;2.13;;;;;;;20.40;56.76;96793.72;5171831;27;20090;-69
2022/09/19 00:49:31;;;;;;;2.05;1.80;;;;;;;20.40;56.78;96791.03;5171725;27;20079;-68
2022/09/19 00:52:00;;;;;;;2.17;1.50;;;;;;;20.40;56.98;96788.38;5171593;27;20030;-65
2022/09/19 00:54:40;;;;;;;3.45;1.95;;;;;;;20.41;56.82;96785.41;5171041;27;20261;-69
2022/09/19 00:57:07;;;;;;;2.15;1.58;;;;;;;20.41;57.01;96776.56;5171624;27;20255;-68
2022/09/19 00:59:35;;;;;;;2.63;2.25;;;;;;;20.42;56.81;96767.44;5171581;27;20070;-66
2022/09/19 01:02:04;;;;;;;2.22;1.65;;;;;;;20.41;56.92;96769.31;5171543;27;20046;-68
2022/09/19 01:04:35;;;;;;;2.33;1.50;;;;;;;20.40;56.89;96767.69;5153066;27;20107;-68
2022/09/19 01:07:13;;;;;;;4.45;1.67;;;;;;;20.39;56.87;96771.41;5167784;27;20054;-68
2022/09/19 01:10:01;;;;;;;2.03;1.55;;;;;;;20.38;56.71;96760.94;5171236;27;20039;-67
2022/09/19 01:12:46;;;;;;;2.13;1.83;;;;;;;20.35;56.63;96766.81;5171335;27;20037;-68
2022/09/19 01:15:28;;;;;;;3.65;1.40;;;;;;;20.32;56.58;96768.13;5170718;27;20030;-67
2022/09/19 01:18:02;;;;;;;2.67;1.17;;;;;;;20.29;56.85;96765.94;5170756;27;20033;-67
2022/09/19 01:20:50;;;;;;;2.70;1.65;;;;;;;20.28;56.87;96769.69;5171135;27;20038;-68
2022/09/19 01:23:35;;;;;;;1.98;1.42;;;;;;;20.28;56.79;96772.38;5171048;27;20030;-67
2022/09/19 01:26:19;;;;;;;1.63;1.40;;;;;;;20.26;56.85;96769.13;5169327;27;20110;-67
2022/09/19 01:29:09;;;;;;;2.35;1.60;;;;;;;20.24;56.86;96769.41;5170449;27;20050;-68
2022/09/19 01:31:40;;;;;;;1.75;1.20;;;;;;;20.23;56.77;96769.63;5171046;27;20287;-67
2022/09/19 01:34:33;;;;;;;2.15;1.50;;;;;;;20.22;56.91;96757.31;5170175;27;20228;-67
2022/09/19 01:37:14;;;;;;;3.20;1.80;;;;;;;20.20;56.96;96756.72;5171084;27;20034;-69
2022/09/19 01:39:44;;;;;;;2.70;1.60;;;;;;;20.20;56.72;96762.09;5170698;27;20090;-68
2022/09/19 01:42:14;;;;;;;1.92;1.38;;;;;;;20.18;56.76;96746.22;5170817;27;20026;-68
2022/09/19 01:44:40;;;;;;;3.83;2.30;;;;;;;20.17;56.87;96743.81;5170101;27;20042;-69
2022/09/19 01:47:36;;;;;;;1.77;1.45;;;;;;;20.16;56.99;96742.19;5170707;27;20039;-67
2022/09/19 01:50:20;;;;;;;1.92;1.38;;;;;;;20.16;57.08;96748.34;5169559;27;20155;-68
2022/09/19 01:52:51;;;;;;;1.90;1.30;;;;;;;20.14;56.92;96739.75;5169600;27;20070;-67
2022/09/19 01:55:30;;;;;;;2.00;1.33;;;;;;;20.17;56.92;96738.44;5170433;27;20030;-67
2022/09/19 01:58:40;;;;;;;3.03;2.05;;;;;;;20.13;56.86;96733.56;5170635;27;20035;-67
2022/09/19 02:01:29;;;;;;;2.83;1.42;;;;;;;20.11;56.91;96729.53;5132272;27;20041;-66
2022/09/19 02:03:57;;;;;;;3.45;1.55;;;;;;;20.10;57.03;96726.00;5169518;27;20050;-67
2022/09/19 02:07:07;;;;;;;3.30;1.40;;;;;;;20.10;57.00;96712.59;5170296;27;20034;-67
2022/09/19 02:09:47;;;;;;;2.05;1.27;;;;;;;20.10;57.13;96720.66;5161289;27;20045;-67
2022/09/19 02:12:16;;;;;;;2.65;1.73;;;;;;;20.12;56.99;96728.47;5170104;27;20228;-68
2022/09/19 02:14:51;;;;;;;1.77;1.40;;;;;;;20.11;57.17;96735.69;5170104;27;20049;-67
2022/09/19 02:17:24;;;;;;;4.75;1.60;;;;;;;20.11;56.95;96718.78;5169945;27;20041;-67
2022/09/19 02:19:56;;;;;;;2.75;1.80;;;;;;;20.10;57.16;96722.53;5169958;27;20247;-68
2022/09/19 02:22:51;;;;;;;2.28;1.70;;;;;;;20.07;57.04;96721.13;5169988;27;20047;-67
2022/09/19 02:25:25;;;;;;;4.00;1.40;;;;;;;20.06;57.32;96719.53;5167626;27;20305;-69
2022/09/19 02:27:58;;;;;;;2.00;1.48;;;;;;;20.09;57.33;96718.22;5168416;27;20018;-67
2022/09/19 02:30:24;;;;;;;1.88;1.50;;;;;;;20.08;57.33;96721.97;5169660;27;20029;-67
2022/09/19 02:32:51;;;;;;;5.65;2.13;;;;;;;20.08;57.25;96717.41;5169159;27;20042;-67
2022/09/19 02:35:32;;;;;;;1.95;1.48;;;;;;;20.08;57.27;96711.22;5169196;27;20034;-67
2022/09/19 02:38:08;;;;;;;2.70;1.60;;;;;;;20.06;57.41;96716.88;5169407;27;20031;-67
2022/09/19 02:41:06;;;;;;;4.47;1.80;;;;;;;20.04;57.27;96716.28;5169604;27;20102;-68
2022/09/19 02:43:53;;;;;;;2.78;1.50;;;;;;;20.03;57.31;96705.78;5122912;27;20047;-68
2022/09/19 02:46:32;;;;;;;3.92;1.42;;;;;;;20.04;57.31;96710.09;5169444;27;20027;-68
2022/09/19 02:49:09;;;;;;;2.13;1.55;;;;;;;20.04;57.35;96707.41;5169385;27;20094;-68
2022/09/19 02:51:40;;;;;;;4.75;1.92;;;;;;;20.02;57.26;96696.94;5169424;27;20034;-70
2022/09/19 02:54:15;;;;;;;1.98;1.38;;;;;;;20.01;57.25;96692.63;5168653;27;20137;-69
2022/09/19 02:56:43;;;;;;;2.13;1.45;;;;;;;20.00;57.55;96699.06;5168532;27;20030;-68
2022/09/19 02:59:18;;;;;;;7.57;1.40;;;;;;;20.01;57.24;96689.97;5168242;27;20069;-68
2022/09/19 03:01:50;;;;;;;3.35;1.63;;;;;;;20.01;57.21;96699.88;5168594;27;20049;-68
2022/09/19 03:04:23;;;;;;;3.22;2.00;;;;;;;20.01;57.17;96697.19;5169074;27;20046;-68
2022/09/19 03:07:12;;;;;;;2.10;1.55;;;;;;;20.01;57.26;96691.81;5168038;27;20030;-68
2022/09/19 03:09:41;;;;;;;3.55;1.50;;;;;;;19.98;57.36;96695.81;5168419;27;20097;-68
2022/09/19 03:12:39;;;;;;;1.83;1.60;;;;;;;19.98;57.26;96693.13;5169156;27;20120;-68
2022/09/19 03:15:07;;;;;;;1.90;1.40;;;;;;;19.96;57.24;96688.03;5136208;27;20126;-68
2022/09/19 03:17:40;;;;;;;3.92;1.65;;;;;;;19.96;57.28;96687.22;5168676;27;20045;-67
2022/09/19 03:20:11;;;;;;;4.95;1.33;;;;;;;19.96;57.27;96692.56;5169198;27;20158;-68
2022/09/19 03:22:37;;;;;;;2.15;1.58;;;;;;;19.95;57.35;96691.78;5168750;27;20030;-68
2022/09/19 03:25:03;;;;;;;2.20;1.60;;;;;;;19.93;57.18;96691.22;5168310;27;20034;-67
2022/09/19 03:27:28;;;;;;;1.95;1.40;;;;;;;19.93;56.97;96683.16;5168564;27;20026;-67
2022/09/19 03:29:54;;;;;;;2.63;1.60;;;;;;;19.94;57.17;96686.66;5168199;27;20177;-68
2022/09/19 03:32:23;;;;;;;4.18;1.50;;;;;;;19.94;57.18;96686.66;5168663;27;20139;-67
2022/09/19 03:34:49;;;;;;;2.95;1.67;;;;;;;19.95;57.04;96683.72;5169073;27;20152;-68
2022/09/19 03:37:14;;;;;;;2.40;1.77;;;;;;;19.94;56.98;96679.41;5168131;27;20050;-68
2022/09/19 03:39:40;;;;;;;3.35;1.58;;;;;;;19.94;57.08;96692.00;5168423;27;20074;-67
2022/09/19 03:42:06;;;;;;;2.55;1.73;;;;;;;19.93;56.96;96682.34;5168579;27;20234;-68
2022/09/19 03:44:32;;;;;;;2.38;1.48;;;;;;;19.93;56.84;96677.78;5168008;27;20039;-68
2022/09/19 03:46:57;;;;;;;2.72;1.58;;;;;;;19.92;56.89;96686.91;5168656;27;20041;-68
2022/09/19 03:49:23;;;;;;;1.85;1.38;;;;;;;19.92;56.97;96680.75;5167821;27;20095;-68
2022/09/19 03:51:49;;;;;;;2.25;1.20;;;;;;;19.91;56.87;96684.50;5168506;27;20079;-68
2022/09/19 03:54:14;;;;;;;2.88;1.10;;;;;;;19.90;56.84;96672.94;5168313;27;20026;-69
2022/09/19 03:56:40;;;;;;;1.73;1.25;;;;;;;19.90;56.70;96677.50;5168214;27;20176;-69
2022/09/19 03:59:05;;;;;;;2.03;1.17;;;;;;;19.90;56.79;96688.22;5168486;27;20049;-68
2022/09/19 04:01:31;;;;;;;1.63;1.33;;;;;;;19.90;56.47;96697.06;5168499;27;20098;-69
2022/09/19 04:03:56;;;;;;;6.95;1.48;;;;;;;19.88;56.53;96684.97;5166917;27;20037;-68
2022/09/19 04:06:22;;;;;;;2.33;1.25;;;;;;;19.88;56.43;96691.16;5168639;27;20030;-68
2022/09/19 04:08:48;;;;;;;2.03;0.85;;;;;;;19.88;56.37;96701.09;5168360;27;20115;-69
2022/09/19 04:11:13;;;;;;;3.13;1.40;;;;;;;19.87;56.26;96707.50;5168386;27;20033;-68
2022/09/19 04:13:39;;;;;;;4.80;1.20;;;;;;;19.86;55.98;96692.44;5170108;27;20030;-68
2022/09/19 04:16:06;;;;;;;2.03;0.93;;;;;;;19.84;55.72;96695.38;5172019;27;20039;-68
2022/09/19 04:18:34;;;;;;;1.52;0.90;;;;;;;19.84;55.63;96698.06;5170829;27;20042;-68
2022/09/19 04:20:59;;;;;;;0.73;0.60;;;;;;;19.83;55.52;96705.28;5172414;27;20242;-68
2022/09/19 04:23:26;;;;;;;1.08;0.80;;;;;;;19.81;55.25;96702.03;5172177;27;20039;-68
2022/09/19 04:25:51;;;;;;;3.05;0.80;;;;;;;19.81;54.94;96698.56;5172292;27;20042;-69
2022/09/19 04:28:18;;;;;;;3.03;1.00;;;;;;;19.80;55.24;96696.94;5171842;27;20046;-69
2022/09/19 04:30:44;;;;;;;1.23;0.60;;;;;;;19.79;55.28;96688.06;5172071;27;20027;-68
2022/09/19 04:33:12;;;;;;;2.30;0.77;;;;;;;19.81;54.95;96698.56;5171654;27;20165;-69
2022/09/19 04:35:38;;;;;;;1.65;0.60;;;;;;;19.80;54.81;96700.41;5172005;27;20165;-68
2022/09/19 04:38:09;;;;;;;1.27;0.68;;;;;;;19.81;54.62;96710.09;5165406;27;20031;-68
2022/09/19 04:40:38;;;;;;;2.88;0.60;;;;;;;19.82;54.51;96708.22;5171720;27;20031;-68
2022/09/19 04:43:04;;;;;;;1.77;0.70;;;;;;;19.82;54.13;96711.72;5171872;27;20082;-68
2022/09/19 04:45:30;;;;;;;0.60;0.50;;;;;;;19.81;53.99;96703.94;5171764;27;20050;-68
2022/09/19 04:47:59;;;;;;;0.60;0.40;;;;;;;19.80;53.60;96707.66;5172031;27;20140;-69
2022/09/19 04:50:25;;;;;;;1.45;0.65;;;;;;;19.80;53.66;96705.78;5171772;27;20106;-68
2022/09/19 04:52:51;;;;;;;0.68;0.50;;;;;;;19.79;53.59;96709.53;5171443;27;20046;-68
2022/09/19 04:55:17;;;;;;;2.20;0.50;;;;;;;19.77;53.83;96700.94;5168970;27;20051;-68
2022/09/19 04:57:42;;;;;;;2.97;0.40;;;;;;;19.78;53.73;96724.00;5150466;27;20062;-68
2022/09/19 05:00:08;;;;;;;0.77;0.40;;;;;;;19.78;53.34;96707.09;5150798;27;20023;-68
2022/09/19 05:02:34;;;;;;;0.40;0.40;;;;;;;19.76;53.30;96707.38;5150958;27;20019;-67
2022/09/19 05:05:00;;;;;;;1.35;0.60;;;;;;;19.76;53.46;96711.91;5150509;27;20177;-67
2022/09/19 05:07:31;;;;;;;4.25;0.63;;;;;;;19.76;53.19;96709.22;5150514;27;20068;-68
2022/09/19 05:09:56;;;;;;;3.25;0.50;;;;;;;19.76;53.58;96698.50;5169375;27;20034;-68
2022/09/19 05:12:22;;;;;;;1.70;0.50;;;;;;;19.76;53.15;96718.09;5171462;27;20027;-67
2022/09/19 05:14:48;;;;;;;0.47;0.30;;;;;;;19.76;53.39;96706.53;5171329;27;20038;-68
2022/09/19 05:17:13;;;;;;;2.03;0.70;;;;;;;19.75;53.09;96712.97;5171061;27;20030;-68
2022/09/19 05:19:39;;;;;;;5.45;0.80;;;;;;;19.74;52.99;96712.16;5170345;27;20111;-68
2022/09/19 05:22:04;;;;;;;0.63;0.40;;;;;;;19.72;52.91;96700.03;5171098;27;20039;-68
2022/09/19 05:24:29;;;;;;;0.77;0.38;;;;;;;19.69;53.07;96704.03;5170406;27;20279;-68
2022/09/19 05:26:56;;;;;;;1.00;0.30;;;;;;;19.67;52.72;96698.94;5170554;27;20034;-68
2022/09/19 05:29:22;;;;;;;0.65;0.40;;;;;;;19.64;52.74;96695.91;5170187;27;20233;-68
2022/09/19 05:31:48;;;;;;;1.40;0.40;;;;;;;19.64;52.48;96701.28;5170955;27;20038;-68
2022/09/19 05:34:14;;;;;;;0.80;0.50;;;;;;;19.62;52.57;96704.22;5152749;27;20153;-68
2022/09/19 05:36:40;;;;;;;2.55;0.60;;;;;;;19.59;52.37;96691.31;5170879;27;20057;-68
2022/09/19 05:39:06;;;;;;;2.70;0.40;;;;;;;19.61;52.13;96696.44;5165935;27;20030;-67
2022/09/19 05:41:32;;;;;;;0.50;0.30;;;;;;;19.57;52.10;96706.03;5169950;27;20042;-67
2022/09/19 05:43:58;;;;;;;2.40;0.68;;;;;;;19.56;51.98;96699.84;5169908;27;20040;-69
2022/09/19 05:46:24;;;;;;;1.42;0.50;;;;;;;19.55;52.00;96710.84;5170643;27;20039;-69
2022/09/19 05:48:49;;;;;;;2.90;1.38;;;;;;;19.52;52.00;96712.94;5170337;27;20110;-70
2022/09/19 05:51:15;;;;;;;1.52;0.40;;;;;;;19.53;52.21;96716.47;5170576;27;20093;-70
2022/09/19 05:53:54;;;;;;;2.33;0.40;;;;;;;19.52;51.84;96712.16;5170009;27;20070;-69
2022/09/19 05:56:21;;;;;;;0.57;0.30;;;;;;;19.52;51.77;96704.09;5169975;27;20054;-69
2022/09/19 05:58:46;;;;;;;1.23;0.32;;;;;;;19.52;51.93;96710.28;5170152;27;20272;-69
2022/09/19 06:01:13;;;;;;;0.95;0.30;;;;;;;19.50;51.74;96701.66;5170386;27;20046;-69
2022/09/19 06:03:39;;;;;;;1.05;0.40;;;;;;;19.52;51.78;96721.00;5169615;27;20026;-69
2022/09/19 06:06:11;;;;;;;0.52;0.30;;;;;;;19.52;51.67;96696.06;5170235;27;20026;-69
2022/09/19 06:08:40;;;;;;;2.80;0.68;;;;;;;19.52;51.72;96699.53;5170040;27;20038;-69
2022/09/19 06:11:07;;;;;;;0.60;0.30;;;;;;;19.53;51.66;96705.72;5170120;27;20042;-70
2022/09/19 06:16:17;;;;;;;4.35;0.52;;;;;;;19.54;51.71;96701.16;5169734;27;20255;-70
2022/09/19 06:18:43;;;;;;;1.05;0.73;;;;;;;19.55;51.38;96702.78;5169809;27;20023;-70
2022/09/19 06:21:09;;;;;;;1.33;0.45;;;;;;;19.55;51.49;96706.31;5170035;27;20051;-70
2022/09/19 06:23:34;;;;;;;1.85;0.40;;;;;;;19.53;51.32;96708.41;5169854;27;20033;-70
2022/09/19 06:26:00;;;;;;;2.00;0.30;;;;;;;19.51;51.27;96697.91;5169691;27;20147;-70
2022/09/19 06:28:25;;;;;;;0.40;0.30;;;;;;;19.49;51.18;96704.59;5169708;27;20023;-70
2022/09/19 06:30:51;;;;;;;2.55;0.40;;;;;;;19.47;51.24;96707.53;5169726;27;20030;-69
2022/09/19 06:33:16;;;;;;;0.20;0.20;;;;;;;19.44;51.12;96697.31;5169549;27;20094;-69
2022/09/19 06:35:42;;;;;;;1.58;0.68;;;;;;;19.44;51.07;96701.84;5168983;27;20267;-68
2022/09/19 06:38:08;;;;;;;1.25;0.35;;;;;;;19.44;51.44;96709.88;5162652;27;20027;-70
2022/09/19 06:40:37;;;;;;;1.88;0.73;;;;;;;19.44;51.45;96724.13;5148904;27;20035;-70
2022/09/19 06:43:05;;;;;;;1.73;0.20;;;;;;;19.43;51.57;96725.19;5149043;27;20047;-70
2022/09/19 06:45:37;;;;;;;1.30;0.20;;;;;;;19.42;51.44;96710.16;5148542;27;20042;-69
2022/09/19 06:48:03;;;;;;;0.20;0.20;;;;;;;19.41;51.52;96723.81;5160711;27;20011;-69
2022/09/19 06:50:28;;;;;;;1.60;0.35;;;;;;;19.38;51.35;96719.72;5168859;27;20035;-69
2022/09/19 06:52:55;;;;;;;2.60;0.10;;;;;;;19.35;51.28;96723.72;5169181;27;20162;-69
2022/09/19 06:55:23;;;;;;;1.85;0.28;;;;;;;19.35;51.67;96730.94;5169272;27;20033;-69
2022/09/19 06:57:54;;;;;;;0.20;0.20;;;;;;;19.34;51.27;96726.63;5168586;27;20045;-70
2022/09/19 07:00:22;;;;;;;;;;;;;;;19.24;51.68;96724.66;5169576;27;20043;-70
2022/09/19 07:02:48;;;;;;;2.53;1.20;;;;;;;19.23;51.80;96733.75;5169335;27;19910;-69
2022/09/19 07:05:13;;;;;;;0.60;0.38;;;;;;;19.23;51.69;96749.81;5169030;27;20132;-70
2022/09/19 07:07:39;;;;;;;0.45;0.20;;;;;;;19.22;51.76;96758.94;5167930;27;20034;-70
2022/09/19 07:10:05;;;;;;;0.20;0.20;;;;;;;19.23;52.07;96732.91;5168570;27;20053;-69
2022/09/19 07:12:30;;;;;;;1.25;0.30;;;;;;;19.26;51.58;96743.97;5168864;27;20038;-70
2022/09/19 07:14:55;;;;;;;0.82;0.40;;;;;;;19.28;51.55;96741.03;5168866;27;20263;-70
2022/09/19 07:17:21;;;;;;;0.47;0.30;;;;;;;19.29;51.70;96737.31;5168575;27;20262;-70
2022/09/19 07:19:46;;;;;;;1.13;0.25;;;;;;;19.30;51.90;96744.28;5167985;27;20026;-70
2022/09/19 07:22:16;;;;;;;2.17;0.38;;;;;;;19.29;51.54;96742.66;5168625;27;20192;-69
2022/09/19 07:24:42;;;;;;;0.30;0.10;;;;;;;19.26;51.57;96753.88;5148225;27;20084;-69
2022/09/19 07:27:07;;;;;;;2.22;0.25;;;;;;;19.25;51.00;96771.00;5147934;27;20090;-69
2022/09/19 07:29:33;;;;;;;0.25;0.13;;;;;;;19.24;51.17;96761.34;5159046;27;20031;-69
2022/09/19 07:31:59;;;;;;;0.57;0.20;;;;;;;19.24;51.06;96780.94;5168429;27;20079;-70
2022/09/19 07:34:25;;;;;;;0.70;0.15;;;;;;;19.21;50.71;96768.81;5168794;27;20039;-69
2022/09/19 07:36:52;;;;;;;2.70;0.60;;;;;;;19.19;50.52;96780.84;5168718;27;20098;-69
2022/09/19 07:39:17;;;;;;;0.40;0.10;;;;;;;19.18;50.37;96772.00;5146672;27;20261;-68
2022/09/19 07:41:42;;;;;;;0.30;0.28;;;;;;;19.19;50.31;96767.44;5148117;27;20035;-68
2022/09/19 07:44:08;;;;;;;0.30;0.20;;;;;;;19.20;50.19;96779.78;5152787;27;20236;-68
2022/09/19 07:46:33;;;;;;;0.32;0.10;;;;;;;19.20;50.43;96764.50;5166772;27;20264;-68
2022/09/19 07:48:59;;;;;;;1.17;0.13;;;;;;;19.19;49.99;96770.94;5171667;27;20238;-69
2022/09/19 07:51:25;;;;;;;0.20;0.20;;;;;;;19.16;50.12;96768.75;5172929;27;20023;-68
2022/09/19 07:53:50;;;;;;;0.10;0.10;;;;;;;19.14;50.28;96770.88;5171662;27;20035;-69
2022/09/19 07:56:16;;;;;;;0.47;0.03;;;;;;;19.14;50.48;96762.81;5172675;27;20097;-69
2022/09/19 07:58:42;;;;;;;1.50;0.10;;;;;;;19.13;50.52;96781.81;5172633;27;20247;-69
2022/09/19 08:01:07;;;;;;;2.92;0.43;;;;;;;19.13;50.49;96782.63;5172714;27;20100;-69
2022/09/19 08:03:33;;;;;;;0.32;0.20;;;;;;;19.11;50.38;96790.09;5172234;27;20026;-68
2022/09/19 08:05:59;;;;;;;0.90;0.20;;;;;;;19.07;50.38;96778.25;5172180;27;20102;-69
2022/09/19 08:08:26;;;;;;;1.27;0.20;;;;;;;19.05;50.34;96772.31;5172547;27;20033;-69
2022/09/19 08:10:52;;;;;;;1.08;0.15;;;;;;;19.04;50.08;96784.91;5172466;27;20054;-69
2022/09/19 08:13:18;;;;;;;0.47;0.17;;;;;;;19.00;49.95;96756.16;5171509;27;20045;-69
2022/09/19 08:15:45;;;;;;;0.85;0.20;;;;;;;19.01;49.81;96779.22;5171727;27;20030;-69
2022/09/19 08:18:23;;;;;;;0.10;0.10;;;;;;;18.99;49.89;96770.63;5172660;27;20026;-69
2022/09/19 08:20:48;;;;;;;0.75;0.20;;;;;;;18.96;49.83;96784.50;5172456;27;20053;-69
2022/09/19 08:23:17;;;;;;;0.63;0.40;;;;;;;18.96;49.81;96779.13;5171655;27;20022;-69
2022/09/19 08:25:46;;;;;;;0.10;0.10;;;;;;;18.94;49.59;96776.72;5171976;27;20240;-68
2022/09/19 08:28:21;;;;;;;1.10;0.20;;;;;;;18.94;49.77;96781.22;5171814;27;20087;-69
2022/09/19 08:30:47;;;;;;;2.53;0.30;;;;;;;18.92;49.48;96790.31;5172089;27;20033;-69
2022/09/19 08:33:14;;;;;;;2.08;0.28;;;;;;;18.92;49.55;96778.78;5171950;27;20075;-69
2022/09/19 08:35:41;;;;;;;0.63;0.40;;;;;;;18.94;49.40;96783.88;5171834;27;20045;-69
2022/09/19 08:38:08;;;;;;;1.52;0.40;;;;;;;18.91;49.30;96772.59;5165231;27;20090;-68
2022/09/19 08:40:46;;;;;;;0.38;0.20;;;;;;;18.90;49.20;96773.66;5151105;27;20239;-68
2022/09/19 08:43:21;;;;;;;2.88;0.73;;;;;;;18.90;49.22;96781.69;5151113;27;20098;-68
2022/09/19 08:45:47;;;;;;;2.42;0.40;;;;;;;18.87;49.17;96774.16;5150966;27;20181;-69
2022/09/19 08:48:20;;;;;;;4.82;0.43;;;;;;;18.89;48.95;96789.97;5151015;27;20046;-69
2022/09/19 08:50:56;;;;;;;11.13;0.90;;;;;;;18.87;49.03;96789.41;5150981;27;20185;-68
2022/09/19 08:53:28;;;;;;;4.28;0.28;;;;;;;18.85;48.85;96786.97;5150685;27;20149;-69
2022/09/19 08:56:00;;;;;;;1.88;0.32;;;;;;;18.86;48.90;96783.25;5150597;27;20136;-68
2022/09/19 08:58:27;;;;;;;2.70;0.93;;;;;;;18.85;49.00;96784.31;5150276;27;20256;-69
2022/09/19 09:00:54;;;;;;;0.32;0.17;;;;;;;18.86;48.85;96787.78;5150768;27;20086;-68
2022/09/19 09:03:29;;;;;;;3.08;0.35;;;;;;;18.87;48.69;96779.53;5150717;27;20050;-68
2022/09/19 09:06:05;;;;;;;2.80;0.57;;;;;;;18.86;48.75;96777.91;5156825;27;20033;-68
2022/09/19 09:09:07;;;;;;;0.85;0.40;;;;;;;18.86;48.77;96793.97;5171287;27;20050;-69
2022/09/19 09:11:58;;;;;;;3.00;0.30;;;;;;;18.85;48.82;96767.41;5168762;27;20040;-68
2022/09/19 09:14:46;;;;;;;0.55;0.30;;;;;;;18.84;48.53;96788.03;5171157;27;20015;-69
2022/09/19 09:17:40;;;;;;;0.45;0.30;;;;;;;18.83;48.87;96797.13;5170920;27;20053;-68
2022/09/19 09:20:28;;;;;;;3.60;0.45;;;;;;;18.83;48.63;96799.81;5171234;27;20208;-70
2022/09/19 09:23:25;;;;;;;1.63;0.40;;;;;;;18.84;48.81;96801.44;5171099;27;20075;-67
2022/09/19 09:26:02;;;;;;;0.93;0.38;;;;;;;18.83;49.00;96802.47;5141481;27;20035;-67
2022/09/19 09:28:57;;;;;;;17.75;1.35;;;;;;;18.80;48.90;96813.66;5150244;27;20094;-67
2022/09/19 09:31:28;;;;;;;0.28;0.10;;;;;;;18.80;48.99;96802.16;5113352;27;20039;-67
2022/09/19 09:34:03;;;;;;;2.33;0.32;;;;;;;18.79;49.34;96814.72;5149937;27;20046;-71
2022/09/19 09:36:42;;;;;;;1.60;0.77;;;;;;;18.77;49.24;96814.16;5149947;27;20047;-67
2022/09/19 09:39:18;;;;;;;1.00;0.40;;;;;;;18.76;49.41;96817.88;5165522;27;20116;-70
2022/09/19 09:41:54;;;;;;;2.53;0.38;;;;;;;18.76;49.29;96815.19;5170758;27;20086;-69
2022/09/19 09:44:30;;;;;;;2.38;0.50;;;;;;;18.75;49.54;96811.72;5170535;27;20168;-69
2022/09/19 09:47:14;;;;;;;1.65;0.32;;;;;;;18.76;49.43;96815.19;5170973;27;20135;-70
2022/09/19 09:49:39;;;;;;;4.25;1.02;;;;;;;18.75;49.38;96821.59;5170593;27;20035;-69
2022/09/19 09:52:20;;;;;;;1.83;0.40;;;;;;;18.75;49.33;96792.16;5170555;27;20045;-66
2022/09/19 09:57:46;;;;;;;2.22;0.40;;;;;;;18.71;49.49;96813.25;5168809;27;20134;-71
2022/09/19 10:03:38;;;;;;;1.40;0.43;;;;;;;18.68;49.46;96819.09;5170223;27;20022;-67
2022/09/19 10:06:13;;;;;;;1.38;0.55;;;;;;;18.65;49.65;96824.13;5170150;27;20030;-68
2022/09/19 10:08:43;;;;;;;2.58;0.50;;;;;;;18.66;50.01;96825.75;5169308;27;20215;-69
2022/09/19 10:11:24;;;;;;;5.90;1.48;;;;;;;18.68;50.00;96808.38;5169342;27;20054;-67
2022/09/19 10:14:07;;;;;;;1.42;0.93;;;;;;;18.68;50.06;96818.28;5169997;27;20041;-68
2022/09/19 10:16:35;;;;;;;2.13;0.75;;;;;;;18.66;50.18;96820.38;5170000;27;20034;-68
2022/09/19 10:19:27;;;;;;;3.90;0.65;;;;;;;18.66;49.98;96812.34;5169577;27;20042;-67
2022/09/19 10:21:54;;;;;;;1.45;0.50;;;;;;;18.65;50.17;96816.91;5169965;27;20030;-67
2022/09/19 10:24:40;;;;;;;0.80;0.50;;;;;;;18.63;50.45;96802.09;5167809;27;20023;-69
2022/09/19 10:27:26;;;;;;;5.57;0.55;;;;;;;18.61;50.39;96810.41;5169899;27;20090;-69
2022/09/19 10:30:12;;;;;;;1.40;0.40;;;;;;;18.58;50.66;96806.34;5169857;27;20087;-68
2022/09/19 10:32:38;;;;;;;1.00;0.50;;;;;;;18.58;50.53;96787.59;5169751;27;20015;-69
2022/09/19 10:35:27;;;;;;;2.60;0.52;;;;;;;18.58;50.51;96803.66;5169823;27;20033;-67
2022/09/19 10:38:04;;;;;;;1.90;0.47;;;;;;;18.58;50.54;96806.34;5169329;27;20046;-70
2022/09/19 10:40:31;;;;;;;5.97;0.82;;;;;;;18.56;50.54;96805.75;5169162;27;20023;-70
2022/09/19 10:42:58;;;;;;;1.38;0.60;;;;;;;18.55;50.60;96803.31;5167712;27;20050;-68
2022/09/19 10:45:32;;;;;;;3.90;0.50;;;;;;;18.54;50.67;96790.97;5169600;27;20026;-69
2022/09/19 10:48:09;;;;;;;2.17;0.70;;;;;;;18.53;50.79;96803.56;5169496;27;20079;-68
2022/09/19 10:50:42;;;;;;;1.92;0.80;;;;;;;18.52;50.97;96798.44;5169353;27;20035;-70
2022/09/19 10:53:22;;;;;;;3.80;0.85;;;;;;;18.54;51.25;96797.16;5168102;27;20031;-71
2022/09/19 10:55:49;;;;;;;2.20;0.55;;;;;;;18.56;51.14;96789.69;5167542;27;20182;-71
2022/09/19 10:58:22;;;;;;;6.40;0.57;;;;;;;18.60;51.32;96798.06;5166811;27;20042;-67
2022/09/19 11:00:53;;;;;;;0.90;0.40;;;;;;;18.62;51.42;96793.28;5168549;27;20105;-68
2022/09/19 11:03:23;;;;;;;1.95;0.60;;;;;;;18.66;51.63;96793.59;5163320;27;20097;-70
2022/09/19 11:06:12;;;;;;;2.65;0.40;;;;;;;18.67;51.41;96790.69;5166094;27;20102;-68
2022/09/19 11:08:44;;;;;;;0.93;0.45;;;;;;;18.68;51.84;96796.84;5167315;27;20046;-68
2022/09/19 11:11:37;;;;;;;1.90;0.50;;;;;;;18.70;51.57;96787.50;5169035;27;20042;-68
2022/09/19 11:14:19;;;;;;;1.08;0.50;;;;;;;18.72;51.61;96793.44;5163937;27;20026;-69
2022/09/19 11:17:04;;;;;;;0.60;0.40;;;;;;;18.73;51.71;96789.72;5167325;27;20023;-70
2022/09/19 11:20:03;;;;;;;4.50;0.50;;;;;;;18.77;51.42;96773.97;5165260;27;20026;-71
2022/09/19 11:22:31;;;;;;;1.15;0.50;;;;;;;18.78;51.64;96782.84;5164812;27;20031;-71
2022/09/19 11:25:38;;;;;;;2.85;0.50;;;;;;;18.78;51.75;96796.22;5153753;27;20140;-70
2022/09/19 11:28:37;;;;;;;1.63;0.52;;;;;;;18.75;51.38;96776.91;5137156;27;20038;-69
2022/09/19 11:31:27;;;;;;;2.53;0.52;;;;;;;18.75;51.16;96798.31;5167872;27;20165;-70
2022/09/19 11:34:11;;;;;;;2.10;0.73;;;;;;;18.72;51.33;96800.69;5168645;27;20031;-70
2022/09/19 11:36:51;;;;;;;1.92;0.35;;;;;;;18.70;51.21;96790.19;5168712;27;20077;-69
2022/09/19 11:39:31;;;;;;;2.97;0.68;;;;;;;18.69;51.43;96777.06;5168494;27;20051;-68
2022/09/19 11:41:59;;;;;;;2.83;0.65;;;;;;;18.68;51.58;96786.13;5168721;27;20023;-70
2022/09/19 11:44:46;;;;;;;1.50;0.70;;;;;;;18.69;51.56;96779.72;5168567;27;20026;-68
2022/09/19 11:47:46;;;;;;;2.40;0.60;;;;;;;18.69;51.49;96779.72;5168578;27;20046;-71
2022/09/19 11:50:25;;;;;;;2.30;0.45;;;;;;;18.70;51.53;96795.56;5168579;27;20042;-69
2022/09/19 11:53:49;;;;;;;1.67;0.60;;;;;;;18.67;51.56;96801.41;5166955;27;20118;-67
2022/09/19 11:56:35;;;;;;;3.20;0.32;;;;;;;18.68;51.77;96778.91;5085047;28;20062;-70
2022/09/19 11:59:09;;;;;;;3.30;0.50;;;;;;;18.71;51.47;96815.94;5147612;27;20035;-69
2022/09/19 12:02:09;;;;;;;3.85;0.50;;;;;;;18.70;51.62;96800.91;5147731;27;20035;-70
2022/09/19 12:04:42;;;;;;;1.52;0.40;;;;;;;18.68;51.47;96815.59;5163992;27;20038;-70
2022/09/19 12:07:29;;;;;;;2.65;0.73;;;;;;;18.68;51.45;96820.97;5168744;27;20022;-70
2022/09/19 12:10:06;;;;;;;0.63;0.32;;;;;;;18.65;51.67;96814.22;5168453;27;20106;-69
2022/09/19 12:12:36;;;;;;;4.35;0.75;;;;;;;18.65;51.81;96818.75;5168353;27;20045;-68